• Join FlightAware (Why Join?)
  • Login
  • US Flag 
11:22AM EDT


 

Airport Tracker/Info


-or-


 

Live Flight TrackerFlight Track Log ✈ UAL3744 ✈ 18-Apr-2013 ✈ KCHS - KIAD

Flight Track Log - Related Links

Times and Time Zones

All times are in EDT time to prevent confusion due to time zone crossing. See the UAL3744 flight status page for this flight to view local times or setup timezone preferences in your user account.

Time Position Orientation Groundspeed Altitude Reporting Facility
EDT Latitude Longitude Course Direction KTS MPH feet Rate Location/Type
05:34AM 33.0103 -80.0042 14° North 224 258 5,400  Level Jacksonville Center
05:35AM 33.3508 -79.8913 23° Northeast  Level FlightAware Approximate
05:35AM 33.0703 -79.9850 15° North 242 278 8,100  Level Jacksonville Center
05:36AM 33.4689 -79.8613 13° North  Level FlightAware Approximate
05:36AM 33.1386 -79.9606 17° North 250 288 10,000  Level Jacksonville Center
05:37AM 33.5867 -79.8277 13° North  Level FlightAware Approximate
05:37AM 33.2192 -79.9256 20° North 278 320 11,700  Level Jacksonville Center
05:38AM 33.7044 -79.7937 14° North  Level FlightAware Approximate
05:38AM 33.3144 -79.8875 18° North 323 372 13,800  Level Jacksonville Center
05:39AM 33.8218 -79.7585 14° North  Level FlightAware Approximate
05:39AM 33.4136 -79.8444 20° North 350 403 16,200  Level Jacksonville Center
05:40AM 33.5147 -79.8036 19° North 369 425 17,900 1,860 Climbing Jacksonville Center
05:41AM 33.6161 -79.7600 20° North 381 438 20,000 1,800 Climbing Jacksonville Center
05:42AM 33.7214 -79.7164 19° North 381 438 21,600 1,440 Climbing Jacksonville Center
05:43AM 33.8286 -79.6725 19° North 387 445 22,900 1,200 Climbing Jacksonville Center
05:44AM 33.9403 -79.6258 19° North 405 466 24,100 1,200 Climbing Jacksonville Center
05:45AM 34.0514 -79.5742 21° North 417 480 25,300 1,020 Climbing Jacksonville Center
05:47AM 34.3136 -79.4639 19° North 435 501 27,600 960 Climbing Washington Center
05:48AM 34.4342 -79.4117 20° North 445 512 28,600 660 Climbing Washington Center
05:49AM 34.5550 -79.3544 21° North 451 519 29,000 180 Climbing Washington Center
05:50AM 34.6739 -79.2917 23° Northeast 457 526 29,000  Level Washington Center
05:51AM 34.7922 -79.2364 21° North 457 526 29,000  Level Washington Center
05:52AM 34.9131 -79.1783 22° Northeast 457 526 29,000  Level Washington Center
05:53AM 35.0358 -79.1153 23° Northeast 462 532 29,000  Level Washington Center
05:54AM 35.1567 -79.0547 22° Northeast 462 532 29,000  Level Washington Center
05:55AM 35.2794 -78.9939 22° Northeast 462 532 29,000  Level Washington Center
05:56AM 35.4000 -78.9353 22° Northeast 462 532 29,000  Level Washington Center
05:57AM 35.5206 -78.8739 23° Northeast 462 532 29,000  Level Washington Center
05:58AM 35.6539 -78.8078 22° Northeast 462 532 29,000  Level Washington Center
05:59AM 35.7744 -78.7461 23° Northeast 462 532 29,000  Level Washington Center
06:00AM 35.8950 -78.6842 23° Northeast 462 532 29,000  Level Washington Center
06:01AM 36.0133 -78.6222 23° Northeast 462 532 29,000  Level Washington Center
06:02AM 36.1339 -78.5597 23° Northeast 462 532 29,000  Level Washington Center
06:03AM 36.2564 -78.4975 22° Northeast 462 532 29,000  Level Washington Center
06:04AM 36.3789 -78.4350 22° Northeast 462 532 29,000  Level Washington Center
06:05AM 36.5014 -78.3722 22° Northeast 462 532 29,000  Level Washington Center
06:06AM 36.6197 -78.3092 23° Northeast 462 532 29,000  Level Washington Center
06:07AM 36.7358 -78.2458 24° Northeast 462 532 29,000 -60 Level Washington Center
06:08AM 36.8542 -78.1850 22° Northeast 462 532 28,900 -660 Descending Washington Center
06:09AM 36.9742 -78.1242 22° Northeast 462 532 27,700 -1,200 Descending Washington Center
06:10AM 37.0903 -78.0603 24° Northeast 462 532 26,500 -1,200 Descending Washington Center
06:11AM 37.2064 -77.9986 23° Northeast 462 532 25,300 -1,200 Descending Washington Center
06:12AM 37.3203 -77.9397 22° Northeast 456 525 24,100 -1,200 Descending Washington Center
06:13AM 37.4319 -77.8803 23° Northeast 438 504 22,900 -1,200 Descending Washington Center
06:14AM 37.5436 -77.8181 24° Northeast 438 504 21,700 -1,620 Descending Washington Center
06:15AM 37.6511 -77.7558 25° Northeast 433 498 19,700 -1,920 Descending Washington Center
06:16AM 37.7564 -77.6958 24° Northeast 420 483 17,900 -2,040 Descending Washington Center
06:17AM 37.8597 -77.6328 26° Northeast 410 472 15,700 -2,340 Descending Washington Center
06:18AM 37.9608 -77.5775 23° Northeast 398 458 13,300 -2,220 Descending Washington Center
06:19AM 38.0386 -77.5322 25° Northeast 368 423 11,300 -1,740 Descending Washington Center
06:20AM 38.1269 -77.4844 23° Northeast 348 400 9,900 -720 Descending Washington Center
06:21AM 38.2108 -77.4628 11° North 321 369 9,900 -480 Level Washington Center
06:22AM 38.2925 -77.4436 10° North 306 352 9,000 -1,080 Descending Washington Center
06:23AM 38.3719 -77.4217 12° North 295 339 7,800 -1,260 Descending Washington Center
06:24AM 38.4517 -77.3997 12° North 295 339 6,500 -1,320 Descending Washington Center
06:25AM 38.5289 -77.3806 11° North 290 334 5,200 -840 Descending Washington Center
06:26AM 38.6064 -77.3664 North 290 334 4,900 -600 Descending Washington Center
06:26AM 38.6500 -77.3667 360° North 282 325 4,400 -720 Descending Potomac TRACON
06:27AM 38.7167 -77.3667 360° North 282 325 4,000 -240 Descending Potomac TRACON
06:28AM 38.8000 -77.3500 North 278 320 4,000 -480 Level Potomac TRACON
06:29AM 38.8667 -77.3500 360° North 276 318 3,200 -540 Descending Potomac TRACON
06:30AM 38.9333 -77.3500 360° North 274 315 3,000 -120 Descending Potomac TRACON
06:31AM 39.0167 -77.3500 360° North 270 311 3,000 -480 Level Potomac TRACON
06:32AM 39.0667 -77.3500 360° North 250 288 2,200 -600 Descending Potomac TRACON
06:33AM 39.0833 -77.4167 288° West 240 276 2,000 -180 Descending Potomac TRACON
06:34AM 39.0333 -77.4333 195° South 197 227 1,900 -480 Descending Potomac TRACON
06:35AM 39.0000 -77.4333 180° South 140 161 1,100 -840 Descending Potomac TRACON